createdAt,value
2022-09-05T04:47:15.605Z,49.30
2022-09-05T04:52:40.601Z,49.19
2022-09-05T04:57:58.837Z,49.24
2022-09-05T05:06:17.346Z,49.25
2022-09-05T05:08:38.439Z,49.28
2022-09-05T05:17:54.906Z,49.63
2022-09-05T05:20:40.090Z,49.39
2022-09-05T05:25:10.373Z,49.54
2022-09-05T05:30:09.250Z,49.89
2022-09-05T05:35:20.568Z,49.66
2022-09-05T05:40:16.994Z,50.00
2022-09-05T05:45:18.998Z,49.74
2022-09-05T05:50:33.880Z,49.79
2022-09-05T05:56:03.324Z,49.77
2022-09-05T06:01:37.833Z,49.51
2022-09-05T06:06:44.883Z,49.74
2022-09-05T06:15:00.314Z,49.93
2022-09-05T06:17:31.767Z,50.09
2022-09-05T06:22:33.527Z,49.83
2022-09-05T06:28:18.167Z,50.03
2022-09-05T06:33:45.384Z,50.14
2022-09-05T06:39:00.637Z,49.71
2022-09-05T06:44:26.289Z,49.67
2022-09-05T06:49:29.713Z,49.71
2022-09-05T06:54:59.747Z,49.22
2022-09-05T07:00:22.630Z,49.56
2022-09-05T07:05:42.701Z,49.41
2022-09-05T07:10:48.359Z,49.46
2022-09-05T07:15:56.128Z,49.27
2022-09-05T07:21:18.228Z,49.17
2022-09-05T07:26:39.580Z,49.13
2022-09-05T07:31:38.099Z,48.84
2022-09-05T07:36:40.057Z,48.69
2022-09-05T07:41:39.473Z,49.14
2022-09-05T07:46:39.207Z,48.80
2022-09-05T07:56:46.653Z,48.51
2022-09-05T08:02:16.585Z,48.78
2022-09-05T08:07:47.022Z,48.69
2022-09-05T08:13:22.838Z,48.71
2022-09-05T08:18:34.975Z,48.71
2022-09-05T08:24:13.302Z,48.81
2022-09-05T08:29:30.988Z,48.71
2022-09-05T08:34:44.278Z,48.59
2022-09-05T08:39:42.499Z,48.62
2022-09-05T08:46:39.830Z,48.46
2022-09-05T08:50:41.983Z,48.27
2022-09-05T08:55:54.537Z,48.54
2022-09-05T09:01:07.138Z,48.18
2022-09-05T09:06:30.719Z,48.33
2022-09-05T09:11:34.185Z,48.12
2022-09-05T09:16:45.802Z,48.35
2022-09-05T09:21:51.107Z,48.25
2022-09-05T09:26:54.912Z,48.42
2022-09-05T09:32:06.217Z,48.03
2022-09-05T09:37:50.509Z,47.78
2022-09-05T09:42:53.875Z,47.85
2022-09-05T09:48:02.126Z,47.53
2022-09-05T09:53:15.408Z,47.33
2022-09-05T09:58:24.107Z,47.34
2022-09-05T10:09:23.141Z,47.07
2022-09-05T10:10:45.890Z,47.14
2022-09-05T10:15:17.839Z,46.85
2022-09-05T10:20:39.263Z,47.07
2022-09-05T10:26:02.101Z,46.66
2022-09-05T10:32:47.094Z,46.98
2022-09-05T10:36:34.621Z,46.80
2022-09-05T10:41:43.176Z,46.75
2022-09-05T10:46:53.400Z,46.89
2022-09-05T10:51:52.679Z,46.63
2022-09-05T10:56:50.608Z,46.25
2022-09-05T11:02:26.641Z,46.20
2022-09-05T11:07:43.187Z,45.77
2022-09-05T11:12:48.768Z,45.81
2022-09-05T11:18:03.835Z,45.46
2022-09-05T11:23:15.148Z,45.23
2022-09-05T11:28:27.534Z,45.10
2022-09-05T11:39:00.786Z,45.12
2022-09-05T11:40:05.989Z,44.79
2022-09-05T11:44:56.679Z,45.14
2022-09-05T11:50:11.975Z,44.80
2022-09-05T11:55:35.916Z,44.79
2022-09-05T12:00:44.081Z,44.46
2022-09-05T12:06:21.099Z,44.51
2022-09-05T12:11:36.088Z,44.25
2022-09-05T12:16:46.535Z,44.33
2022-09-05T12:22:10.022Z,44.20
2022-09-05T12:27:43.986Z,44.24
2022-09-05T12:35:57.098Z,44.77
2022-09-05T12:40:44.909Z,44.73
2022-09-05T12:44:40.014Z,44.24
2022-09-05T12:49:01.478Z,44.51
2022-09-05T12:54:32.650Z,44.68
2022-09-05T13:02:56.872Z,44.41
2022-09-05T13:05:01.604Z,44.07
2022-09-05T13:13:56.630Z,44.29
2022-09-05T13:15:36.062Z,44.16
2022-09-05T13:20:36.386Z,43.65
2022-09-05T13:25:34.560Z,43.82
2022-09-05T13:34:11.141Z,43.40
2022-09-05T13:38:20.016Z,43.47
2022-09-05T13:41:28.385Z,43.87
2022-09-05T13:46:35.994Z,43.58
2022-09-05T13:51:56.306Z,43.64
2022-09-05T13:57:01.650Z,43.28
2022-09-05T14:02:26.067Z,43.82
2022-09-05T14:08:01.096Z,43.35
2022-09-05T14:13:14.274Z,43.34
2022-09-05T14:18:20.391Z,43.11
2022-09-05T14:23:19.812Z,43.20
2022-09-05T14:28:34.166Z,43.12
2022-09-05T14:37:54.705Z,43.00
2022-09-05T14:39:14.244Z,43.45
2022-09-05T14:44:37.912Z,43.20
2022-09-05T14:49:51.072Z,42.79
2022-09-05T15:02:42.868Z,42.29
2022-09-05T15:05:31.412Z,42.44
2022-09-05T15:12:24.351Z,42.36
2022-09-05T15:16:09.904Z,42.47
2022-09-05T15:21:33.678Z,42.16
2022-09-05T15:26:31.635Z,42.01
2022-09-05T15:31:28.080Z,42.07
2022-09-05T15:36:37.723Z,42.15
2022-09-05T15:41:43.304Z,41.73
2022-09-05T15:47:07.127Z,41.62
2022-09-05T15:52:07.905Z,41.58
2022-09-05T15:57:08.744Z,41.65
2022-09-05T16:02:12.176Z,42.32
2022-09-05T16:10:28.464Z,42.85
2022-09-05T16:12:38.538Z,43.17
2022-09-05T16:55:03.051Z,46.00
2022-09-05T16:59:59.900Z,46.46
2022-09-05T17:05:23.873Z,47.07
2022-09-05T17:10:25.714Z,46.86
2022-09-05T17:16:11.776Z,47.42
2022-09-05T17:25:05.394Z,47.34
2022-09-05T17:39:35.958Z,47.57
2022-09-05T17:45:26.823Z,47.50
2022-09-05T17:50:28.189Z,47.97
2022-09-05T17:56:07.754Z,47.38
2022-09-05T18:01:27.151Z,47.57
2022-09-05T18:24:35.078Z,48.36
2022-09-05T18:36:02.999Z,48.30
2022-09-05T18:41:51.896Z,48.40
2022-09-05T18:47:33.359Z,48.49
2022-09-05T18:59:14.682Z,48.44
2022-09-05T19:04:46.435Z,48.81
2022-09-05T19:10:41.340Z,48.41
2022-09-05T19:29:00.034Z,48.61
